EW9218 Weather Reports


time (UTC)temp
C
wind
direction
speed
KPH
gust
KPH
rain 1hr
cm
rain 24hr
cm
rain mn
cm
humidity
%
barometer
mb
20190418123511 20 90 14.5 30.6 0.00 0.00 0.00 33 1023.5
20190418122511 20 112 17.7 29.0 0.00 0.00 0.00 34 1023.4
20190418121510 20 90 16.1 30.6 0.00 0.00 0.00 35 1023.5
20190418120511 20 112 17.7 32.2 0.00 0.00 0.00 36 1023.7
20190418115510 20 90 17.7 29.0 0.00 0.00 0.00 36 1023.5
20190418114511 20 90 14.5 27.4 0.00 0.00 0.00 39 1023.6
20190418113511 19 112 20.9 38.6 0.00 0.00 0.00 37 1023.6
20190418112511 19 90 16.1 29.0 0.00 0.00 0.00 38 1023.6
20190418111510 19 90 19.3 30.6 0.00 0.00 0.00 38 1023.6
20190418110511 19 112 16.1 30.6 0.00 0.00 0.00 41 1023.7
20190418105510 18 112 3.2 20.9 0.00 0.00 0.00 42 1023.7
20190418104510 18 112 12.9 27.4 0.00 0.00 0.00 43 1023.8
20190418103510 18 90 11.3 25.7 0.00 0.00 0.00 44 1023.7
20190418102510 17 112 17.7 30.6 0.00 0.00 0.00 44 1023.8
20190418101510 17 90 17.7 25.7 0.00 0.00 0.00 45 1023.9
20190418100510 17 90 17.7 33.8 0.00 0.00 0.00 47 1024.0
20190418095510 17 112 11.3 30.6 0.00 0.00 0.00 47 1023.9
20190418094510 16 90 12.9 29.0 0.00 0.00 0.00 48 1023.9
20190418093510 16 90 16.1 24.1 0.00 0.00 0.00 50 1023.9
20190418092510 16 90 16.1 27.4 0.00 0.00 0.00 52 1024.0
20190418091510 15 90 16.1 24.1 0.00 0.00 0.00 52 1024.0
20190418090510 15 90 16.1 32.2 0.00 0.00 0.00 54 1024.1
20190418085510 14 112 14.5 25.7 0.00 0.00 0.00 54 1024.0
20190418084510 14 112 16.1 29.0 0.00 0.00 0.00 56 1024.1
20190418083510 13 90 16.1 30.6 0.00 0.00 0.00 57 1024.1
20190418082510 13 90 16.1 25.7 0.00 0.00 0.00 57 1023.9
20190418081510 13 90 16.1 24.1 0.00 0.00 0.00 59 1023.9
20190418080510 13 90 16.1 27.4 0.00 0.00 0.00 59 1023.8
20190418075510 12 90 16.1 29.0 0.00 0.00 0.00 61 1023.8
20190418074510 12 112 11.3 24.1 0.00 0.00 0.00 61 1023.7
20190418073510 12 90 12.9 25.7 0.00 0.00 0.00 62 1023.7
20190418072510 11 90 11.3 22.5 0.00 0.00 0.00 65 1023.7
20190418071510 11 90 9.7 20.9 0.00 0.00 0.00 66 1023.6
20190418070510 10 90 12.9 19.3 0.00 0.00 0.00 67 1023.5
20190418065510 10 90 6.4 16.1 0.00 0.00 0.00 67 1023.6
20190418064510 10 112 6.4 16.1 0.00 0.00 0.00 68 1023.7
20190418063510 10 112 9.7 19.3 0.00 0.00 0.00 68 1023.6
20190418062510 9 90 4.8 12.9 0.00 0.00 0.00 69 1023.6
20190418061510 8 90 6.4 16.1 0.00 0.00 0.00 70 1023.7
20190418060510 8 90 9.7 20.9 0.00 0.00 0.00 71 1023.6
20190418055510 7 90 6.4 12.9 0.00 0.00 0.00 72 1023.5
20190418054510 7 90 3.2 12.9 0.00 0.00 0.00 74 1023.5
20190418053510 6 112 3.2 9.7 0.00 0.00 0.00 75 1023.3
20190418052510 6 112 3.2 9.7 0.00 0.00 0.00 76 1023.3
20190418051512 6 112 3.2 11.3 0.00 0.00 0.00 77 1023.2
20190418050512 5 112 4.8 12.9 0.00 0.00 0.00 78 1023.1
20190418045512 5 90 1.6 12.9 0.00 0.00 0.00 77 1023.0
20190418044512 5 0.0 3.2 0.00 0.00 0.00 77 1022.9
20190418043512 5 90 1.6 6.4 0.00 0.00 0.00 76 1022.8
20190418042512 5 0.0 3.2 0.00 0.00 0.00 76 1022.9
20190418041512 6 67 1.6 4.8 0.00 0.00 0.00 75 1022.9
20190418040512 6 67 1.6 3.2 0.00 0.00 0.00 74 1022.7
20190418035514 6 45 1.6 11.3 0.00 0.00 0.00 73 1022.7
20190418034512 6 0.0 1.6 0.00 0.00 0.00 72 1022.7
20190418033512 7 90 1.6 4.8 0.00 0.00 0.00 72 1022.8
20190418032512 7 0.0 6.4 0.00 0.00 0.00 72 1022.8
20190418031512 7 0.0 0.0 0.00 0.00 0.00 72 1022.7
20190418030512 7 90 4.8 12.9 0.00 0.00 0.00 72 1022.7
20190418025512 7 90 3.2 9.7 0.00 0.00 0.00 72 1022.8
20190418024512 7 90 4.8 11.3 0.00 0.00 0.00 71 1022.9
20190418023512 7 90 1.6 11.3 0.00 0.00 0.00 71 1022.8
20190418022512 7 90 4.8 12.9 0.00 0.00 0.00 71 1022.8
20190418021512 7 90 4.8 12.9 0.00 0.00 0.00 71 1023.0
20190418020512 7 90 3.2 11.3 0.00 0.00 0.00 70 1023.1
20190418015512 7 0.0 4.8 0.00 0.00 0.00 70 1023.0
20190418014512 7 112 3.2 9.7 0.00 0.00 0.00 69 1023.1
20190418013511 8 90 3.2 9.7 0.00 0.00 0.00 69 1023.2
20190418012512 8 90 3.2 6.4 0.00 0.00 0.00 69 1023.2
20190418011512 8 90 1.6 6.4 0.00 0.00 0.00 68 1023.2
20190418010512 8 90 3.2 11.3 0.00 0.00 0.00 68 1023.2
20190418005511 8 90 4.8 9.7 0.00 0.00 0.00 67 1023.1
20190418004512 8 90 4.8 9.7 0.00 0.00 0.00 67 1023.1
20190418003512 8 90 3.2 6.4 0.00 0.00 0.00 67 1023.1
20190418002512 8 90 4.8 11.3 0.00 0.00 0.00 67 1023.2
20190418001511 8 90 4.8 12.9 0.00 0.00 0.00 66 1023.3
20190418000512 8 90 4.8 11.3 0.00 0.00 0.00 66 1023.4
20190417235512 8 90 4.8 11.3 0.00 0.00 0.00 65 1023.5
20190417234511 9 90 4.8 6.4 0.00 0.00 0.00 65 1023.7
20190417233511 9 90 8.0 14.5 0.00 0.00 0.00 65 1023.7
20190417232512 9 90 4.8 11.3 0.00 0.00 0.00 65 1023.7
20190417231518 9 90 4.8 9.7 0.00 0.00 0.00 64 1023.5
20190417230511 9 90 4.8 12.9 0.00 0.00 0.00 64 1023.6
20190417225511 9 90 4.8 9.7 0.00 0.00 0.00 64 1023.6
20190417224511 10 90 4.8 11.3 0.00 0.00 0.00 63 1023.6
20190417223511 10 112 3.2 11.3 0.00 0.00 0.00 63 1023.6
20190417222512 10 90 3.2 12.9 0.00 0.00 0.00 62 1023.5
20190417221512 10 112 4.8 12.9 0.00 0.00 0.00 62 1023.6
20190417220511 10 90 9.7 17.7 0.00 0.00 0.00 62 1023.6
20190417215511 10 112 6.4 12.9 0.00 0.00 0.00 62 1023.6
20190417214512 10 112 9.7 14.5 0.00 0.00 0.00 61 1023.5
20190417213511 10 0.0 8.0 0.00 0.00 0.00 60 1023.4
20190417212511 10 112 6.4 12.9 0.00 0.00 0.00 60 1023.4
20190417211512 10 90 6.4 11.3 0.00 0.00 0.00 59 1023.3
20190417210512 11 90 6.4 16.1 0.00 0.00 0.00 58 1023.1
20190417205511 10 90 6.4 14.5 0.00 0.00 0.00 58 1023.1
20190417204512 10 112 4.8 11.3 0.00 0.00 0.00 57 1022.9
20190417203511 10 90 4.8 14.5 0.00 0.00 0.00 56 1023.0
20190417202512 10 112 6.4 14.5 0.00 0.00 0.00 53 1022.9
20190417201511 10 112 6.4 14.5 0.00 0.00 0.00 52 1022.7
20190417200511 10 0.0 0.0 0.00 0.00 0.00 52 1022.7
20190417195511 10 0.0 0.0 0.00 0.00 0.00 52 1022.6
20190417194512 11 0.0 0.0 0.00 0.00 0.00 53 1022.4
20190417193511 11 0.0 0.0 0.00 0.00 0.00 51 1022.5
20190417192511 11 0.0 0.0 0.00 0.00 0.00 50 1022.2
20190417191511 11 0.0 0.0 0.00 0.00 0.00 49 1022.2
20190417190511 12 0.0 0.0 0.00 0.00 0.00 46 1022.1
20190417185511 12 0.0 0.0 0.00 0.00 0.00 45 1022.0
20190417184512 13 0.0 0.0 0.00 0.00 0.00 41 1021.9
20190417183511 13 0.0 0.0 0.00 0.00 0.00 40 1021.8
20190417182511 13 0.0 0.0 0.00 0.00 0.00 39 1021.8
20190417181511 14 0.0 0.0 0.00 0.00 0.00 37 1021.6
20190417180511 15 0.0 0.0 0.00 0.00 0.00 35 1021.4
20190417175511 15 0.0 0.0 0.00 0.00 0.00 34 1021.2
20190417174512 16 0.0 0.0 0.00 0.00 0.00 33 1021.0
20190417173511 16 0.0 0.0 0.00 0.00 0.00 33 1021.0
20190417172511 16 0.0 0.0 0.00 0.00 0.00 32 1020.9
20190417171511 16 112 4.8 14.5 0.00 0.00 0.00 32 1020.9
20190417170511 17 112 6.4 14.5 0.00 0.00 0.00 31 1021.0
20190417165511 17 90 8.0 14.5 0.00 0.00 0.00 31 1020.9
20190417164511 17 90 8.0 12.9 0.00 0.00 0.00 30 1020.8
20190417163511 17 112 8.0 19.3 0.00 0.00 0.00 29 1021.0
20190417162511 17 90 6.4 12.9 0.00 0.00 0.00 28 1020.9
20190417161511 17 90 11.3 17.7 0.00 0.00 0.00 27 1020.9
20190417160511 18 90 12.9 20.9 0.00 0.00 0.00 26 1020.9
20190417155511 18 112 12.9 20.9 0.00 0.00 0.00 25 1020.8
20190417154511 18 112 12.9 20.9 0.00 0.00 0.00 26 1020.9
20190417153511 18 112 12.9 17.7 0.00 0.00 0.00 23 1020.9
20190417152511 19 112 11.3 17.7 0.00 0.00 0.00 21 1021.0
20190417151511 19 90 11.3 17.7 0.00 0.00 0.00 22 1020.9
20190417150511 19 90 9.7 16.1 0.00 0.00 0.00 22 1020.9
20190417145511 19 112 8.0 16.1 0.00 0.00 0.00 23 1020.8
20190417144511 19 112 12.9 20.9 0.00 0.00 0.00 25 1021.1
20190417143511 19 90 4.8 20.9 0.00 0.00 0.00 26 1021.1
20190417142511 19 112 12.9 20.9 0.00 0.00 0.00 25 1021.1
20190417141511 19 90 8.0 17.7 0.00 0.00 0.00 25 1021.2
20190417140511 19 112 8.0 20.9 0.00 0.00 0.00 22 1021.1
20190417135511 20 112 6.4 12.9 0.00 0.00 0.00 24 1021.3
20190417134511 20 112 4.8 14.5 0.00 0.00 0.00 24 1021.4
20190417133511 19 90 11.3 16.1 0.00 0.00 0.00 25 1021.5
20190417132511 19 112 11.3 20.9 0.00 0.00 0.00 24 1021.5
20190417131511 19 112 6.4 17.7 0.00 0.00 0.00 24 1021.5
20190417130511 19 112 12.9 19.3 0.00 0.00 0.00 24 1021.6
20190417125511 19 90 11.3 19.3 0.00 0.00 0.00 26 1021.8
20190417124511 18 112 8.0 12.9 0.00 0.00 0.00 26 1021.7